createdAt,value
2024-02-12T00:01:12.291Z,7.04
2024-02-12T00:04:09.379Z,7.27
2024-02-12T00:07:06.323Z,7.05
2024-02-12T00:10:06.653Z,6.96
2024-02-12T00:13:04.338Z,6.84
2024-02-12T00:16:01.233Z,7.37
2024-02-12T00:18:59.050Z,7.03
2024-02-12T00:21:56.696Z,6.92
2024-02-12T00:24:53.577Z,7.01
2024-02-12T00:27:50.490Z,6.83
2024-02-12T00:30:47.329Z,6.64
2024-02-12T00:33:44.479Z,6.74
2024-02-12T00:36:42.509Z,6.76
2024-02-12T00:39:39.418Z,6.71
2024-02-12T00:42:37.254Z,6.65
2024-02-12T00:45:34.711Z,6.80
2024-02-12T00:48:33.065Z,6.78
2024-02-12T00:51:30.042Z,7.35
2024-02-12T00:54:28.700Z,7.43
2024-02-12T00:57:25.760Z,7.34
2024-02-12T01:00:24.131Z,7.56
2024-02-12T01:03:21.150Z,7.47
2024-02-12T01:06:18.239Z,7.44
2024-02-12T01:09:15.585Z,7.20
2024-02-12T01:12:12.431Z,7.17
2024-02-12T01:15:11.191Z,7.17
2024-02-12T01:18:11.068Z,7.18
2024-02-12T01:21:08.689Z,6.61
2024-02-12T01:24:06.680Z,6.53
2024-02-12T01:27:03.759Z,6.73
2024-02-12T01:30:00.648Z,6.39
2024-02-12T01:32:57.922Z,6.55
2024-02-12T01:35:54.920Z,6.30
2024-02-12T01:38:53.018Z,6.39
2024-02-12T01:41:49.922Z,6.56
2024-02-12T01:45:13.422Z,6.49
2024-02-12T01:48:11.948Z,6.34
2024-02-12T01:51:10.495Z,6.88
2024-02-12T01:54:08.843Z,6.73
2024-02-12T01:57:06.733Z,6.90
2024-02-12T02:00:06.403Z,6.95
2024-02-12T02:03:03.384Z,6.89
2024-02-12T02:06:01.220Z,6.99
2024-02-12T02:08:59.196Z,6.79
2024-02-12T02:11:56.079Z,6.78
2024-02-12T02:14:52.965Z,7.09
2024-02-12T02:17:49.948Z,6.87
2024-02-12T02:20:48.151Z,6.79
2024-02-12T02:23:45.333Z,7.22
2024-02-12T02:26:42.337Z,6.90
2024-02-12T02:29:39.273Z,7.24
2024-02-12T02:32:39.115Z,7.18
2024-02-12T02:35:39.313Z,7.35
2024-02-12T02:38:36.423Z,7.68
2024-02-12T02:41:34.128Z,7.25
2024-02-12T02:44:31.372Z,7.34
2024-02-12T02:47:28.445Z,7.22
2024-02-12T02:50:26.444Z,6.88
2024-02-12T02:53:23.451Z,6.92
2024-02-12T02:56:21.209Z,6.71
2024-02-12T02:59:18.097Z,6.87
2024-02-12T03:02:15.362Z,6.74
2024-02-12T03:05:16.072Z,6.63
2024-02-12T03:08:13.361Z,6.52
2024-02-12T03:11:10.529Z,6.34
2024-02-12T03:14:10.779Z,6.53
2024-02-12T03:17:08.250Z,6.70
2024-02-12T03:20:06.957Z,6.62
2024-02-12T03:23:04.164Z,6.73
2024-02-12T03:26:01.075Z,6.62
2024-02-12T03:28:57.996Z,6.62
2024-02-12T03:31:54.944Z,6.68
2024-02-12T03:34:51.939Z,7.20
2024-02-12T03:37:48.944Z,6.68
2024-02-12T03:40:45.796Z,6.70
2024-02-12T03:43:42.683Z,6.47
2024-02-12T03:46:47.164Z,6.41
2024-02-12T03:50:02.353Z,6.57
2024-02-12T03:53:21.999Z,6.36
2024-02-12T03:56:37.267Z,6.45
2024-02-12T03:59:54.333Z,6.70
2024-02-12T04:02:51.289Z,6.38
2024-02-12T04:05:48.188Z,6.63
2024-02-12T04:08:46.546Z,6.69
2024-02-12T04:11:43.648Z,6.41
2024-02-12T04:14:43.292Z,6.50
2024-02-12T04:17:41.085Z,6.51
2024-02-12T04:20:38.763Z,6.30
2024-02-12T04:23:38.693Z,6.69
2024-02-12T04:26:38.922Z,6.48
2024-02-12T04:29:41.662Z,6.67
2024-02-12T04:32:38.928Z,6.46
2024-02-12T04:35:36.685Z,6.72
2024-02-12T04:38:35.104Z,6.60
2024-02-12T04:41:41.035Z,6.61
2024-02-12T04:44:38.035Z,6.71
2024-02-12T04:47:35.138Z,6.85
2024-02-12T04:50:32.062Z,6.89
2024-02-12T04:53:28.989Z,6.82
2024-02-12T04:56:26.168Z,7.13
2024-02-12T04:59:23.695Z,6.87
2024-02-12T05:02:22.196Z,6.59
2024-02-12T05:05:19.387Z,6.73
2024-02-12T05:08:17.774Z,6.92
2024-02-12T05:11:18.259Z,6.66
2024-02-12T05:14:15.221Z,6.82
2024-02-12T05:17:12.747Z,6.85
2024-02-12T05:20:28.772Z,6.83
2024-02-12T05:23:26.286Z,6.95
2024-02-12T05:26:23.259Z,6.73
2024-02-12T05:29:20.273Z,6.92
2024-02-12T05:32:17.413Z,6.95
2024-02-12T05:35:14.509Z,7.03
2024-02-12T05:38:11.584Z,6.51
2024-02-12T05:41:08.661Z,6.60
2024-02-12T05:44:05.555Z,6.62
2024-02-12T05:47:05.917Z,6.77
2024-02-12T05:50:02.893Z,7.01
2024-02-12T05:53:00.830Z,6.87
2024-02-12T05:55:58.331Z,6.53
2024-02-12T05:58:55.269Z,6.95
2024-02-12T06:01:52.323Z,6.85
2024-02-12T06:04:49.373Z,7.04
2024-02-12T06:07:46.380Z,6.68
2024-02-12T06:10:44.096Z,6.77
2024-02-12T06:13:40.977Z,7.16
2024-02-12T06:16:38.996Z,7.05
2024-02-12T06:19:35.882Z,6.96
2024-02-12T06:22:33.798Z,7.20
2024-02-12T06:25:30.753Z,7.42
2024-02-12T06:28:27.627Z,7.03
2024-02-12T06:31:24.499Z,7.24
2024-02-12T06:34:22.432Z,6.80
2024-02-12T06:37:19.353Z,7.24
2024-02-12T06:40:16.528Z,6.50
2024-02-12T06:43:13.408Z,6.78
2024-02-12T06:46:10.278Z,6.51
2024-02-12T06:49:07.163Z,6.29
2024-02-12T06:52:04.753Z,6.21
2024-02-12T06:55:01.679Z,6.50
2024-02-12T06:57:58.667Z,6.45
2024-02-12T07:00:57.408Z,6.74
2024-02-12T07:03:56.236Z,6.91
2024-02-12T07:06:53.237Z,6.56
2024-02-12T07:09:50.098Z,6.40
2024-02-12T07:12:48.014Z,6.12
2024-02-12T07:15:45.012Z,6.07
2024-02-12T07:18:42.073Z,6.15
2024-02-12T07:21:40.818Z,6.20
2024-02-12T07:24:37.958Z,6.69
2024-02-12T07:27:34.824Z,6.72
2024-02-12T07:30:31.898Z,6.28
2024-02-12T07:33:28.957Z,6.43
2024-02-12T07:36:26.043Z,6.54
2024-02-12T07:39:23.729Z,6.40
2024-02-12T07:42:20.600Z,6.71
2024-02-12T07:45:17.536Z,6.51
2024-02-12T07:48:16.611Z,6.94
2024-02-12T07:51:15.870Z,6.73
2024-02-12T07:54:12.813Z,6.62
2024-02-12T07:57:10.085Z,6.40
2024-02-12T08:00:15.448Z,6.93
2024-02-12T08:03:12.810Z,6.72
2024-02-12T08:06:13.523Z,6.83
2024-02-12T08:09:12.062Z,7.08
2024-02-12T08:12:09.384Z,7.08
2024-02-12T08:15:07.424Z,6.88
2024-02-12T08:18:07.822Z,6.97
2024-02-12T08:21:05.444Z,6.83
2024-02-12T08:24:02.406Z,6.76
2024-02-12T08:26:59.266Z,6.68
2024-02-12T08:29:56.236Z,6.75
2024-02-12T08:32:53.299Z,6.98
2024-02-12T08:35:50.423Z,6.89
2024-02-12T08:38:47.413Z,6.73
2024-02-12T08:41:44.356Z,6.70
2024-02-12T08:44:41.410Z,6.80
2024-02-12T08:47:41.492Z,6.75
2024-02-12T08:50:38.525Z,6.94
2024-02-12T08:53:40.937Z,6.67
2024-02-12T08:56:43.092Z,6.79
2024-02-12T08:59:40.289Z,6.82
2024-02-12T09:02:37.577Z,6.73
2024-02-12T09:05:34.670Z,6.72
2024-02-12T09:08:33.309Z,6.98
2024-02-12T09:11:30.395Z,6.90
2024-02-12T09:14:28.005Z,7.01
2024-02-12T09:17:27.425Z,6.89
2024-02-12T09:20:26.207Z,6.87
2024-02-12T09:23:24.065Z,7.02
2024-02-12T09:26:21.010Z,7.36
2024-02-12T09:29:19.000Z,7.73
2024-02-12T09:32:16.174Z,7.18
2024-02-12T09:35:13.942Z,7.25
2024-02-12T09:38:11.019Z,7.01
2024-02-12T09:41:10.602Z,7.40
2024-02-12T09:44:12.489Z,7.20
2024-02-12T09:47:15.677Z,7.56
2024-02-12T09:50:14.985Z,7.73
2024-02-12T09:53:24.469Z,7.55
2024-02-12T09:56:23.195Z,7.38
2024-02-12T09:59:20.206Z,7.58
2024-02-12T10:02:17.528Z,7.62
2024-02-12T10:05:24.680Z,7.62
2024-02-12T10:08:28.024Z,7.33
2024-02-12T10:11:29.956Z,7.30
2024-02-12T10:14:34.349Z,7.51
2024-02-12T10:17:32.656Z,7.55
2024-02-12T10:20:29.717Z,7.75
2024-02-12T10:23:27.540Z,7.72
2024-02-12T10:26:25.641Z,7.44
2024-02-12T10:29:22.570Z,7.46
2024-02-12T10:32:20.550Z,7.48
2024-02-12T10:35:21.320Z,7.40
2024-02-12T10:38:18.357Z,7.27
2024-02-12T10:41:51.141Z,7.26
2024-02-12T10:44:50.757Z,7.50
2024-02-12T10:47:49.279Z,7.23
2024-02-12T10:50:48.594Z,7.19
2024-02-12T10:53:46.284Z,6.56
2024-02-12T10:56:45.013Z,6.26
2024-02-12T10:59:42.135Z,6.06
2024-02-12T11:02:44.835Z,5.89
2024-02-12T11:05:44.500Z,5.98
2024-02-12T11:08:43.437Z,6.20
2024-02-12T11:11:50.174Z,6.79
2024-02-12T11:14:47.502Z,8.61
2024-02-12T11:17:44.547Z,9.01
2024-02-12T11:20:52.313Z,8.92
2024-02-12T11:23:52.140Z,9.20
2024-02-12T11:26:51.411Z,7.38
2024-02-12T11:29:48.803Z,6.90
2024-02-12T11:32:49.687Z,6.79
2024-02-12T11:35:46.732Z,6.55
2024-02-12T11:38:52.877Z,6.93
2024-02-12T11:41:50.223Z,6.53
2024-02-12T11:44:48.198Z,6.63
2024-02-12T11:47:48.770Z,7.64
2024-02-12T11:50:47.259Z,6.70
2024-02-12T11:53:44.234Z,6.79
2024-02-12T11:56:42.016Z,6.81
2024-02-12T11:59:39.104Z,7.11
2024-02-12T12:02:36.216Z,7.02
2024-02-12T12:05:33.276Z,7.04
2024-02-12T12:08:32.706Z,7.52
2024-02-12T12:11:29.733Z,6.90
2024-02-12T12:14:26.688Z,7.24
2024-02-12T12:17:30.700Z,7.04
2024-02-12T12:20:33.416Z,8.04
2024-02-12T12:23:31.682Z,7.36
2024-02-12T12:26:32.498Z,8.44
2024-02-12T12:29:29.405Z,8.53
2024-02-12T12:32:26.474Z,8.76
2024-02-12T12:35:24.829Z,8.75
2024-02-12T12:38:22.912Z,8.52
2024-02-12T12:41:21.525Z,8.53
2024-02-12T12:44:18.474Z,9.19
2024-02-12T12:47:15.430Z,9.37
2024-02-12T12:50:15.175Z,8.95
2024-02-12T12:53:12.357Z,8.90
2024-02-12T12:56:09.296Z,10.05
2024-02-12T12:59:07.120Z,9.12
2024-02-12T13:02:07.473Z,8.95
2024-02-12T13:05:05.555Z,9.97
2024-02-12T13:08:18.162Z,9.21
2024-02-12T13:11:18.330Z,9.20
2024-02-12T13:14:15.309Z,9.55
2024-02-12T13:17:13.323Z,10.04
2024-02-12T13:20:23.100Z,11.26
2024-02-12T13:23:21.988Z,9.93
2024-02-12T13:26:22.486Z,9.75
2024-02-12T13:29:25.720Z,9.94
2024-02-12T13:32:23.161Z,10.17
2024-02-12T13:35:20.408Z,10.98
2024-02-12T13:38:19.700Z,10.20
2024-02-12T13:41:17.772Z,9.39
2024-02-12T13:44:17.695Z,9.19
2024-02-12T13:47:14.675Z,9.19
2024-02-12T13:50:12.400Z,9.21
2024-02-12T13:53:11.154Z,9.05
2024-02-12T13:56:08.244Z,9.48
2024-02-12T13:59:06.002Z,9.45
2024-02-12T14:02:05.785Z,8.58
2024-02-12T14:05:04.484Z,8.91
2024-02-12T14:08:03.689Z,9.11
2024-02-12T14:11:00.768Z,8.18
2024-02-12T14:13:57.806Z,8.21
2024-02-12T14:16:55.631Z,8.15
2024-02-12T14:19:52.592Z,8.35
2024-02-12T14:22:52.077Z,8.38
2024-02-12T14:25:49.156Z,7.84
2024-02-12T14:28:46.034Z,7.63
2024-02-12T14:32:34.491Z,7.74
2024-02-12T14:34:59.899Z,7.29
2024-02-12T14:37:57.429Z,8.20
2024-02-12T14:40:57.698Z,8.49
2024-02-12T14:43:55.905Z,8.71
2024-02-12T14:46:52.806Z,8.51
2024-02-12T14:49:49.906Z,7.86
2024-02-12T14:52:46.823Z,8.55
2024-02-12T14:55:43.726Z,8.13
2024-02-12T14:58:40.834Z,8.46
2024-02-12T15:01:42.239Z,8.31
2024-02-12T15:04:39.099Z,8.55
2024-02-12T15:07:35.963Z,8.44
2024-02-12T15:10:36.567Z,8.30
2024-02-12T15:13:33.542Z,8.31
2024-02-12T15:16:33.601Z,7.86
2024-02-12T15:19:30.587Z,7.41
2024-02-12T15:22:28.288Z,7.58
2024-02-12T15:25:25.331Z,7.19
2024-02-12T15:28:24.896Z,7.54
2024-02-12T15:31:22.746Z,7.40
2024-02-12T15:34:20.104Z,7.08
2024-02-12T15:37:20.132Z,7.25
2024-02-12T15:40:20.850Z,7.40
2024-02-12T15:43:18.107Z,7.84
2024-02-12T15:46:15.009Z,7.45
2024-02-12T15:49:13.295Z,7.39
2024-02-12T15:52:12.139Z,7.84
2024-02-12T15:55:12.073Z,7.58
2024-02-12T15:58:10.379Z,7.20
2024-02-12T16:01:08.247Z,7.24
2024-02-12T16:04:05.993Z,7.30
2024-02-12T16:07:02.964Z,6.45
2024-02-12T16:09:59.915Z,5.94
2024-02-12T16:12:56.826Z,5.97
2024-02-12T16:15:54.599Z,5.78
2024-02-12T16:18:56.777Z,5.81
2024-02-12T16:21:54.795Z,6.01
2024-02-12T16:24:51.717Z,6.74
2024-02-12T16:27:48.629Z,6.93
2024-02-12T16:30:45.772Z,7.35
2024-02-12T16:33:43.051Z,7.04
2024-02-12T16:36:40.235Z,7.29
2024-02-12T16:39:38.450Z,7.48
2024-02-12T16:42:36.403Z,7.57
2024-02-12T16:45:35.076Z,7.19
2024-02-12T16:48:37.046Z,7.18
2024-02-12T16:51:34.018Z,7.49
2024-02-12T16:54:30.877Z,7.76
2024-02-12T16:57:28.191Z,7.12
2024-02-12T17:00:25.085Z,7.24
2024-02-12T17:03:22.013Z,6.66
2024-02-12T17:06:22.382Z,7.17
2024-02-12T17:09:19.888Z,7.51
2024-02-12T17:12:16.957Z,7.81
2024-02-12T17:15:16.405Z,7.78
2024-02-12T17:18:13.494Z,7.01
2024-02-12T17:21:11.365Z,6.81
2024-02-12T17:24:09.809Z,6.68
2024-02-12T17:27:08.658Z,6.44
2024-02-12T17:30:09.505Z,5.82
2024-02-12T17:33:09.007Z,6.15
2024-02-12T17:36:07.468Z,6.28
2024-02-12T17:39:04.541Z,5.73
2024-02-12T17:42:01.412Z,6.10
2024-02-12T17:44:58.290Z,5.94
2024-02-12T17:47:55.281Z,5.87
2024-02-12T17:50:53.183Z,5.89
2024-02-12T17:53:51.533Z,6.48
2024-02-12T17:56:50.323Z,6.13
2024-02-12T17:59:48.660Z,5.58
2024-02-12T18:02:47.304Z,6.05
2024-02-12T18:05:44.610Z,5.62
2024-02-12T18:08:41.513Z,5.93
2024-02-12T18:11:38.434Z,6.03
2024-02-12T18:14:36.102Z,5.81
2024-02-12T18:17:34.265Z,5.67
2024-02-12T18:20:31.236Z,6.31
2024-02-12T18:23:28.263Z,6.04
2024-02-12T18:26:26.226Z,6.01
2024-02-12T18:29:25.672Z,7.08
2024-02-12T18:32:23.620Z,6.45
2024-02-12T18:35:23.093Z,5.76
2024-02-12T18:38:22.822Z,5.43
2024-02-12T18:41:21.191Z,5.69
2024-02-12T18:44:18.622Z,5.89
2024-02-12T18:47:15.548Z,5.45
2024-02-12T18:50:12.866Z,5.64
2024-02-12T18:53:12.162Z,5.59
2024-02-12T18:56:10.318Z,6.28
2024-02-12T18:59:08.283Z,6.46
2024-02-12T19:02:05.817Z,6.67
2024-02-12T19:05:03.318Z,6.89
2024-02-12T19:08:00.438Z,6.95
2024-02-12T19:10:57.390Z,6.70
2024-02-12T19:13:57.267Z,6.78
2024-02-12T19:16:54.262Z,6.81
2024-02-12T19:19:51.134Z,6.69
2024-02-12T19:22:48.481Z,6.71
2024-02-12T19:25:46.413Z,6.97
2024-02-12T19:28:43.312Z,6.94
2024-02-12T19:31:40.646Z,6.68
2024-02-12T19:34:37.646Z,6.35
2024-02-12T19:37:38.764Z,6.28
2024-02-12T19:40:37.942Z,5.82
2024-02-12T19:43:35.078Z,5.70
2024-02-12T19:46:31.941Z,5.81
2024-02-12T19:49:29.958Z,6.38
2024-02-12T19:52:27.983Z,5.92
2024-02-12T19:55:27.982Z,5.96
2024-02-12T19:58:25.134Z,5.52
2024-02-12T20:01:22.057Z,5.58
2024-02-12T20:04:18.972Z,5.50
2024-02-12T20:07:16.322Z,5.52
2024-02-12T20:10:16.728Z,5.72
2024-02-12T20:13:14.709Z,5.68
2024-02-12T20:16:12.685Z,5.90
2024-02-12T20:19:09.625Z,5.49
2024-02-12T20:22:07.340Z,4.94
2024-02-12T20:25:06.296Z,5.36
2024-02-12T20:28:05.974Z,5.48
2024-02-12T20:31:04.230Z,5.13
2024-02-12T20:34:01.335Z,4.98
2024-02-12T20:36:58.677Z,5.25
2024-02-12T20:39:56.467Z,5.01
2024-02-12T20:42:53.354Z,4.85
2024-02-12T20:45:50.361Z,4.51
2024-02-12T20:48:47.378Z,5.14
2024-02-12T20:51:44.313Z,4.88
2024-02-12T20:54:41.229Z,4.85
2024-02-12T20:57:38.356Z,5.05
2024-02-12T21:00:37.090Z,5.11
2024-02-12T21:03:34.025Z,5.40
2024-02-12T21:06:30.947Z,5.15
2024-02-12T21:09:28.997Z,5.18
2024-02-12T21:12:26.216Z,5.28
2024-02-12T21:15:23.114Z,4.85
2024-02-12T21:18:20.382Z,4.83
2024-02-12T21:21:17.406Z,5.19
2024-02-12T21:24:14.378Z,5.15
2024-02-12T21:27:11.361Z,5.22
2024-02-12T21:30:11.268Z,5.41
2024-02-12T21:33:09.642Z,5.23
2024-02-12T21:36:07.054Z,4.84
2024-02-12T21:39:10.651Z,4.99
2024-02-12T21:42:25.135Z,5.25
2024-02-12T21:45:22.725Z,5.00
2024-02-12T21:48:19.779Z,5.18
2024-02-12T21:51:17.776Z,4.82
2024-02-12T21:54:14.699Z,6.06
2024-02-12T21:57:11.617Z,5.98
2024-02-12T22:00:09.368Z,5.57
2024-02-12T22:03:06.262Z,5.90
2024-02-12T22:06:04.382Z,6.09
2024-02-12T22:09:01.271Z,6.00
2024-02-12T22:11:58.205Z,6.07
2024-02-12T22:14:58.705Z,6.05
2024-02-12T22:17:55.864Z,6.13
2024-02-12T22:20:53.019Z,5.73
2024-02-12T22:23:50.097Z,5.60
2024-02-12T22:26:47.065Z,5.28
2024-02-12T22:29:44.096Z,5.50
2024-02-12T22:32:41.134Z,5.36
2024-02-12T22:35:38.389Z,5.74
2024-02-12T22:38:35.351Z,6.00
2024-02-12T22:41:41.609Z,5.90
2024-02-12T22:44:38.675Z,5.59
2024-02-12T22:47:35.718Z,5.65
2024-02-12T22:50:33.797Z,5.62
2024-02-12T22:53:30.770Z,5.32
2024-02-12T22:56:28.389Z,5.33
2024-02-12T22:59:25.368Z,5.21
2024-02-12T23:02:23.473Z,5.05
2024-02-12T23:05:20.778Z,4.68
2024-02-12T23:08:17.759Z,5.00
2024-02-12T23:11:14.707Z,4.95
2024-02-12T23:14:12.997Z,4.79
2024-02-12T23:17:09.935Z,5.02
2024-02-12T23:20:09.097Z,4.50
2024-02-12T23:23:06.265Z,4.58
2024-02-12T23:26:03.286Z,4.72
2024-02-12T23:29:01.528Z,4.68
2024-02-12T23:31:58.522Z,4.50
2024-02-12T23:34:56.740Z,4.70
2024-02-12T23:37:54.057Z,4.99
2024-02-12T23:40:50.944Z,4.66
2024-02-12T23:43:47.807Z,4.12
2024-02-12T23:46:44.672Z,4.66
2024-02-12T23:49:42.523Z,4.89
2024-02-12T23:52:40.534Z,4.76
2024-02-12T23:55:37.459Z,4.21
2024-02-12T23:58:34.333Z,4.69
